Time;durP1;ratioP1;P1;durP2;ratioP2;P2;SDS_P1;SDS_P2;PMS_P1;PMS_P2;Temp;Humidity;BMP_temperature;BMP_pressure;BME280_temperature;BME280_humidity;BME280_pressure;Samples;Min_cycle;Max_cycle;Signal;HPM_P1;HPM_P2
2022/12/02 00:02:19;;;;;;;75.87;43.00;;;5.80;99.90;;;;;;5074019;28;20518;-86
2022/12/02 00:04:53;;;;;;;73.00;42.10;;;5.80;99.90;;;;;;5074960;28;20197;-86
2022/12/02 00:07:21;;;;;;;83.33;44.67;;;5.70;99.90;;;;;;5076424;28;20586;-86
2022/12/02 00:09:48;;;;;;;74.43;42.90;;;5.70;99.90;;;;;;5075113;28;20197;-86
2022/12/02 00:12:20;;;;;;;83.00;46.93;;;5.70;99.90;;;;;;5093254;28;20227;-87
2022/12/02 00:14:50;;;;;;;74.07;42.90;;;5.70;99.90;;;;;;5095068;28;20196;-88
2022/12/02 00:17:16;;;;;;;82.13;44.03;;;5.60;99.90;;;;;;5095206;28;20238;-86
2022/12/02 00:19:43;;;;;;;71.47;41.07;;;5.60;99.90;;;;;;5089486;28;20547;-85
2022/12/02 00:22:12;;;;;;;77.30;42.70;;;5.60;99.90;;;;;;5077699;28;20192;-88
2022/12/02 00:24:39;;;;;;;79.70;43.17;;;5.60;99.90;;;;;;5075914;28;20205;-87
2022/12/02 00:27:05;;;;;;;80.87;43.00;;;5.60;99.90;;;;;;5075678;28;20198;-86
2022/12/02 00:29:32;;;;;;;78.93;44.17;;;5.60;99.90;;;;;;5075143;28;20271;-85
2022/12/02 00:31:59;;;;;;;79.10;42.30;;;5.60;99.90;;;;;;5074953;28;20313;-88
2022/12/02 00:34:26;;;;;;;76.40;42.63;;;5.50;99.90;;;;;;5075140;28;20283;-87
2022/12/02 00:36:53;;;;;;;83.53;43.73;;;5.50;99.90;;;;;;5075172;28;20224;-88
2022/12/02 00:39:21;;;;;;;87.37;47.23;;;5.50;99.90;;;;;;5095552;28;20250;-88
2022/12/02 00:41:48;;;;;;;78.50;42.93;;;5.50;99.90;;;;;;5094592;28;20284;-88
2022/12/02 00:46:59;;;;;;;77.30;42.70;;;5.50;99.90;;;;;;5073946;28;20634;-85
2022/12/02 00:49:26;;;;;;;83.53;42.77;;;5.40;99.90;;;;;;5077955;28;20383;-87
2022/12/02 00:51:53;;;;;;;75.53;43.50;;;5.40;99.90;;;;;;5078286;28;20663;-84
2022/12/02 00:54:21;;;;;;;76.30;42.20;;;5.40;99.90;;;;;;5078411;28;20207;-86
2022/12/02 00:56:49;;;;;;;81.33;43.87;;;5.40;99.90;;;;;;5078404;28;20255;-85
2022/12/02 00:59:16;;;;;;;78.17;43.87;;;5.40;99.90;;;;;;5077878;28;20296;-86
2022/12/02 01:01:43;;;;;;;78.47;42.77;;;5.40;99.90;;;;;;5079492;28;20288;-86
2022/12/02 01:04:10;;;;;;;79.60;44.10;;;5.40;99.90;;;;;;5079311;28;20208;-88
2022/12/02 01:06:39;;;;;;;79.47;41.83;;;5.40;99.90;;;;;;5088006;28;20197;-86
2022/12/02 01:09:06;;;;;;;79.03;41.70;;;5.40;99.90;;;;;;5100188;28;20315;-84
2022/12/02 01:11:34;;;;;;;81.87;43.90;;;5.40;99.90;;;;;;5104343;28;20220;-86
2022/12/02 01:14:01;;;;;;;81.17;42.30;;;5.30;99.90;;;;;;5102252;28;20684;-86
2022/12/02 01:16:28;;;;;;;75.63;40.97;;;5.30;99.90;;;;;;5099594;28;20631;-89
2022/12/02 01:18:55;;;;;;;79.77;42.03;;;5.40;99.90;;;;;;5098843;28;20201;-85
2022/12/02 01:21:23;;;;;;;82.17;42.40;;;5.30;99.90;;;;;;5097588;28;20201;-88
2022/12/02 01:23:50;;;;;;;88.60;44.10;;;5.30;99.90;;;;;;5098708;28;20200;-87
2022/12/02 01:26:17;;;;;;;76.73;40.20;;;5.30;99.90;;;;;;5098215;28;20734;-88
2022/12/02 01:28:46;;;;;;;79.83;42.83;;;5.30;99.90;;;;;;5098948;28;20196;-87
2022/12/02 01:31:13;;;;;;;82.70;42.67;;;5.30;99.90;;;;;;5086797;28;20586;-85
2022/12/02 01:33:41;;;;;;;79.60;41.80;;;5.30;99.90;;;;;;5076941;28;20208;-86
2022/12/02 01:36:08;;;;;;;85.57;43.27;;;5.30;99.90;;;;;;5081663;28;20232;-86
2022/12/02 01:38:35;;;;;;;86.03;43.47;;;5.30;99.90;;;;;;5096906;28;20266;-86
2022/12/02 01:41:02;;;;;;;90.67;43.80;;;5.30;99.90;;;;;;5096972;28;20207;-86
2022/12/02 01:43:29;;;;;;;83.73;43.03;;;5.30;99.90;;;;;;5097023;28;20207;-85
2022/12/02 01:45:58;;;;;;;77.63;40.67;;;5.30;99.90;;;;;;5086550;28;20197;-85
2022/12/02 01:48:24;;;;;;;79.17;42.03;;;5.30;99.90;;;;;;5076424;28;20197;-86
2022/12/02 01:50:52;;;;;;;83.17;43.00;;;5.30;99.90;;;;;;5076730;28;20196;-86
2022/12/02 01:53:19;;;;;;;79.33;40.60;;;5.30;99.90;;;;;;5076530;28;20208;-86
2022/12/02 01:55:46;;;;;;;87.37;42.73;;;5.30;99.90;;;;;;5076311;28;20355;-85
2022/12/02 01:58:14;;;;;;;81.47;43.83;;;5.30;99.90;;;;;;5076366;28;20201;-86
2022/12/02 02:00:41;;;;;;;84.97;42.83;;;5.20;99.90;;;;;;5076154;28;20201;-85
2022/12/02 02:03:09;;;;;;;80.83;41.93;;;5.30;99.90;;;;;;5076186;28;20202;-85
2022/12/02 02:05:37;;;;;;;84.23;44.47;;;5.20;99.90;;;;;;5076099;28;20215;-85
2022/12/02 02:08:06;;;;;;;79.10;41.00;;;5.20;99.90;;;;;;5076337;28;20204;-86
2022/12/02 02:10:34;;;;;;;76.07;39.90;;;5.30;99.90;;;;;;5075950;28;20677;-85
2022/12/02 02:13:02;;;;;;;82.97;41.40;;;5.30;99.90;;;;;;5076087;28;20197;-84
2022/12/02 02:15:30;;;;;;;84.00;43.43;;;5.30;99.90;;;;;;5075695;28;20197;-85
2022/12/02 02:17:58;;;;;;;85.40;42.13;;;5.20;99.90;;;;;;5084199;28;20220;-85
2022/12/02 02:20:27;;;;;;;80.40;42.80;;;5.30;99.90;;;;;;5095977;28;20272;-85
2022/12/02 02:23:03;;;;;;;84.43;43.50;;;5.30;99.90;;;;;;5077226;28;20284;-86
2022/12/02 02:25:33;;;;;;;86.03;44.10;;;5.30;99.90;;;;;;5076308;28;20190;-86
2022/12/02 02:28:01;;;;;;;85.37;43.50;;;5.20;99.90;;;;;;5076142;28;20284;-84
2022/12/02 02:30:29;;;;;;;83.53;42.67;;;5.20;99.90;;;;;;5087894;28;20290;-86
2022/12/02 02:32:57;;;;;;;78.27;40.63;;;5.20;99.90;;;;;;5096039;28;20232;-86
2022/12/02 02:35:24;;;;;;;83.37;41.57;;;5.20;99.90;;;;;;5095776;28;20197;-87
2022/12/02 02:37:53;;;;;;;76.67;41.13;;;5.10;99.90;;;;;;5094974;28;20542;-87
2022/12/02 02:40:22;;;;;;;79.67;41.67;;;5.20;99.90;;;;;;5075925;28;20239;-86
2022/12/02 02:42:53;;;;;;;81.13;41.03;;;5.30;99.90;;;;;;5055199;28;20209;-87
2022/12/02 02:45:23;;;;;;;82.07;42.40;;;5.20;99.90;;;;;;5055237;28;20206;-87
2022/12/02 02:47:50;;;;;;;79.27;40.57;;;5.20;99.90;;;;;;5055899;28;20791;-86
2022/12/02 02:50:18;;;;;;;76.10;39.73;;;5.20;99.90;;;;;;5060188;28;20205;-87
2022/12/02 02:52:46;;;;;;;74.87;38.03;;;5.20;99.90;;;;;;5074892;28;20501;-87
2022/12/02 02:55:19;;;;;;;76.27;38.00;;;5.20;99.90;;;;;;5055307;28;20645;-86
2022/12/02 02:57:46;;;;;;;73.73;38.90;;;5.20;99.90;;;;;;5055521;28;20301;-87
2022/12/02 03:00:17;;;;;;;76.80;39.53;;;5.20;99.90;;;;;;5068023;28;20586;-86
2022/12/02 03:02:49;;;;;;;79.83;41.30;;;5.20;99.90;;;;;;5075068;28;20197;-85
2022/12/02 03:05:16;;;;;;;69.17;38.40;;;5.20;99.90;;;;;;5059066;28;20297;-85
2022/12/02 03:07:43;;;;;;;68.20;37.60;;;5.20;99.90;;;;;;5053711;28;20198;-87
2022/12/02 03:10:11;;;;;;;67.93;34.87;;;5.20;99.90;;;;;;5053384;28;20289;-87
2022/12/02 03:12:38;;;;;;;65.03;34.47;;;5.20;99.90;;;;;;5052301;28;20202;-87
2022/12/02 03:15:07;;;;;;;67.77;35.23;;;5.20;99.90;;;;;;5054976;28;20213;-87
2022/12/02 03:17:36;;;;;;;66.20;34.80;;;5.10;99.90;;;;;;5054998;28;20308;-85
2022/12/02 03:20:05;;;;;;;68.70;34.63;;;5.10;99.90;;;;;;5059413;28;20196;-85
2022/12/02 03:22:32;;;;;;;66.37;34.30;;;5.10;99.90;;;;;;5074997;28;20701;-86
2022/12/02 03:24:59;;;;;;;68.33;34.97;;;5.10;99.90;;;;;;5074754;28;20519;-84
2022/12/02 03:27:27;;;;;;;67.13;33.70;;;5.10;99.90;;;;;;5074797;28;20231;-85
2022/12/02 03:29:54;;;;;;;61.10;32.60;;;5.10;99.90;;;;;;5074781;28;20308;-87
2022/12/02 03:32:21;;;;;;;62.40;32.37;;;5.10;99.90;;;;;;5075087;28;20201;-86
2022/12/02 03:34:49;;;;;;;64.93;33.87;;;5.10;99.90;;;;;;5074347;28;20515;-87
2022/12/02 03:37:16;;;;;;;63.83;34.40;;;5.10;99.90;;;;;;5069738;28;20229;-86
2022/12/02 03:39:43;;;;;;;66.57;32.90;;;5.10;99.90;;;;;;5074936;28;20284;-85
2022/12/02 03:42:10;;;;;;;60.80;31.50;;;5.10;99.90;;;;;;5074560;28;20264;-86
2022/12/02 03:44:37;;;;;;;63.33;32.83;;;5.10;99.90;;;;;;5074527;28;20213;-85
2022/12/02 03:47:04;;;;;;;58.00;32.70;;;5.10;99.90;;;;;;5074743;28;20396;-85
2022/12/02 03:49:33;;;;;;;56.67;31.30;;;5.10;99.90;;;;;;5075255;28;20236;-87
2022/12/02 03:52:02;;;;;;;65.07;34.20;;;5.10;99.90;;;;;;5072340;28;20203;-87
2022/12/02 03:54:29;;;;;;;60.77;32.60;;;5.10;99.90;;;;;;5074575;28;20212;-86
2022/12/02 03:56:56;;;;;;;65.63;35.53;;;5.10;99.90;;;;;;5076198;28;20213;-86
2022/12/02 03:59:27;;;;;;;68.50;36.03;;;5.10;99.90;;;;;;5094235;28;20201;-87
2022/12/02 04:01:55;;;;;;;65.17;32.23;;;5.10;99.90;;;;;;5093744;28;20569;-86
2022/12/02 04:04:21;;;;;;;62.93;33.20;;;5.10;99.90;;;;;;5077425;28;20209;-87
2022/12/02 04:06:48;;;;;;;67.30;33.93;;;5.10;99.90;;;;;;5074529;28;20613;-86
2022/12/02 04:09:17;;;;;;;64.57;33.23;;;5.10;99.90;;;;;;5074318;28;20208;-85
2022/12/02 04:11:44;;;;;;;64.60;34.00;;;5.10;99.90;;;;;;5074768;28;20300;-87
2022/12/02 04:14:11;;;;;;;65.50;33.10;;;5.10;99.90;;;;;;5074841;28;20200;-87
2022/12/02 04:16:38;;;;;;;64.00;31.53;;;5.10;99.90;;;;;;5074043;28;20221;-85
2022/12/02 04:19:07;;;;;;;60.00;32.17;;;5.00;99.90;;;;;;5074734;28;20221;-86
2022/12/02 04:21:34;;;;;;;65.57;32.70;;;5.00;99.90;;;;;;5074177;28;20205;-85
2022/12/02 04:24:00;;;;;;;58.10;30.93;;;5.00;99.90;;;;;;5075966;28;20753;-87
2022/12/02 04:26:29;;;;;;;63.77;33.03;;;5.00;99.90;;;;;;5078675;28;20196;-86
2022/12/02 04:28:55;;;;;;;53.37;30.40;;;5.00;99.90;;;;;;5078006;28;20197;-85
2022/12/02 04:31:22;;;;;;;59.43;29.97;;;5.00;99.90;;;;;;5077968;28;20693;-86
2022/12/02 04:33:49;;;;;;;50.13;27.83;;;5.00;99.90;;;;;;5078397;28;20647;-86
2022/12/02 04:36:16;;;;;;;61.93;30.07;;;5.00;99.90;;;;;;5077929;28;20208;-87
2022/12/02 04:38:43;;;;;;;56.60;30.13;;;4.90;99.90;;;;;;5077943;28;20235;-86
2022/12/02 04:41:10;;;;;;;54.43;28.87;;;5.00;99.90;;;;;;5078330;28;20464;-86
2022/12/02 04:43:38;;;;;;;53.77;27.67;;;4.90;99.90;;;;;;5077762;28;20605;-85
2022/12/02 04:46:05;;;;;;;52.70;28.67;;;4.80;99.90;;;;;;5077994;28;20616;-86
2022/12/02 04:48:32;;;;;;;56.40;29.57;;;4.80;99.90;;;;;;5077688;28;20201;-88
2022/12/02 04:50:59;;;;;;;58.23;28.77;;;4.80;99.90;;;;;;5077700;28;20299;-86
2022/12/02 04:53:26;;;;;;;55.57;29.13;;;4.80;99.90;;;;;;5077997;28;20197;-87
2022/12/02 04:55:53;;;;;;;54.53;27.97;;;4.80;99.90;;;;;;5077942;28;20204;-86
2022/12/02 04:58:20;;;;;;;55.70;27.40;;;4.70;99.90;;;;;;5097266;28;20533;-86
2022/12/02 05:00:48;;;;;;;52.87;26.97;;;4.80;99.90;;;;;;5089605;28;20208;-85
2022/12/02 05:03:15;;;;;;;53.83;28.30;;;4.70;99.90;;;;;;5077550;28;20200;-86
2022/12/02 05:05:42;;;;;;;57.00;29.63;;;4.70;99.90;;;;;;5077289;28;20493;-86
2022/12/02 05:08:09;;;;;;;53.20;26.60;;;4.60;99.90;;;;;;5077506;28;20223;-87
2022/12/02 05:10:35;;;;;;;48.97;26.60;;;4.60;99.90;;;;;;5077790;28;20284;-87
2022/12/02 05:13:02;;;;;;;50.63;27.27;;;4.60;99.90;;;;;;5077337;28;20211;-86
2022/12/02 05:15:29;;;;;;;53.67;27.97;;;4.60;99.90;;;;;;5088824;28;20217;-84
2022/12/02 05:17:57;;;;;;;53.63;27.67;;;4.60;99.90;;;;;;5097583;28;20217;-87
2022/12/02 05:20:24;;;;;;;57.53;28.60;;;4.60;99.90;;;;;;5095662;28;20603;-87
2022/12/02 05:22:51;;;;;;;55.50;27.83;;;4.60;99.90;;;;;;5097584;28;20288;-84
2022/12/02 05:25:18;;;;;;;51.77;26.80;;;4.60;99.90;;;;;;5095808;28;20287;-84
2022/12/02 05:27:45;;;;;;;55.43;28.40;;;4.60;99.90;;;;;;5095914;28;20207;-86
2022/12/02 05:30:13;;;;;;;52.83;27.90;;;4.60;99.90;;;;;;5097556;28;20576;-84
2022/12/02 05:32:40;;;;;;;52.80;27.33;;;4.60;99.90;;;;;;5096672;28;20211;-86
2022/12/02 05:35:08;;;;;;;59.90;28.53;;;4.60;99.90;;;;;;5096748;28;20676;-85
2022/12/02 05:37:35;;;;;;;54.27;27.50;;;4.50;99.90;;;;;;5096676;28;20235;-85
2022/12/02 05:40:02;;;;;;;58.63;27.50;;;4.50;99.90;;;;;;5058590;28;20219;-86
2022/12/02 05:42:29;;;;;;;52.47;27.97;;;4.50;99.90;;;;;;5056847;28;20221;-85
2022/12/02 05:45:00;;;;;;;56.60;27.67;;;4.50;99.90;;;;;;5056928;28;20194;-85
2022/12/02 05:47:29;;;;;;;56.43;28.50;;;4.50;99.90;;;;;;5056332;28;20512;-85
2022/12/02 05:49:58;;;;;;;58.07;27.57;;;4.40;99.90;;;;;;5056699;28;20202;-88
2022/12/02 05:52:28;;;;;;;57.53;28.73;;;4.40;99.90;;;;;;5056343;28;20763;-87
2022/12/02 05:54:57;;;;;;;55.87;27.40;;;4.40;99.90;;;;;;5056207;28;20501;-83
2022/12/02 05:57:26;;;;;;;51.77;25.90;;;4.40;99.90;;;;;;5056439;28;20256;-86
2022/12/02 05:59:57;;;;;;;48.40;25.40;;;4.40;99.90;;;;;;5056212;28;20248;-85
2022/12/02 06:02:29;;;;;;;53.00;26.40;;;4.40;99.90;;;;;;5056157;28;20209;-84
2022/12/02 06:04:56;;;;;;;49.57;25.83;;;4.40;99.90;;;;;;5071420;28;20489;-86
2022/12/02 06:07:24;;;;;;;50.57;25.90;;;4.40;99.90;;;;;;5056031;28;20304;-86
2022/12/02 06:09:53;;;;;;;53.00;25.90;;;4.40;99.90;;;;;;5056950;28;20205;-84
2022/12/02 06:12:21;;;;;;;49.03;26.40;;;4.30;99.90;;;;;;5056729;28;20216;-85
2022/12/02 06:14:52;;;;;;;50.27;25.27;;;4.30;99.90;;;;;;5065602;28;20240;-86
2022/12/02 06:17:19;;;;;;;53.30;26.53;;;4.30;99.90;;;;;;5076562;28;20232;-87
2022/12/02 06:19:50;;;;;;;48.13;23.90;;;4.30;99.90;;;;;;5076008;28;20204;-85
2022/12/02 06:22:20;;;;;;;52.10;25.17;;;4.30;99.90;;;;;;5075236;28;20201;-86
2022/12/02 06:24:47;;;;;;;48.17;24.30;;;4.20;99.90;;;;;;5076255;28;20198;-87
2022/12/02 06:27:18;;;;;;;45.10;24.83;;;4.30;99.90;;;;;;5075343;28;20211;-85
2022/12/02 06:29:48;;;;;;;49.03;25.17;;;4.20;99.90;;;;;;5075729;28;20197;-84
2022/12/02 06:32:19;;;;;;;42.43;22.90;;;4.20;99.90;;;;;;5075319;28;20209;-85
2022/12/02 06:34:49;;;;;;;44.33;23.23;;;4.30;99.90;;;;;;5076215;28;20220;-86
2022/12/02 06:37:20;;;;;;;41.73;21.20;;;4.20;99.90;;;;;;5068499;28;20259;-87
2022/12/02 06:39:49;;;;;;;42.33;23.03;;;4.20;99.90;;;;;;5075036;28;20197;-87
2022/12/02 06:42:22;;;;;;;43.17;22.27;;;4.20;99.90;;;;;;5088089;28;20612;-85
2022/12/02 06:45:07;;;;;;;45.50;23.43;;;4.20;99.90;;;;;;5096495;28;20189;-85
2022/12/02 06:48:07;;;;;;;40.40;22.47;;;4.20;99.90;;;;;;5096217;28;20209;-83
2022/12/02 06:50:37;;;;;;;45.70;22.00;;;4.20;99.90;;;;;;5013615;28;20210;-85
2022/12/02 06:53:19;;;;;;;41.70;20.93;;;4.20;99.90;;;;;;5069962;28;20516;-86
2022/12/02 06:55:47;;;;;;;42.53;22.17;;;4.20;99.90;;;;;;5074461;28;20193;-86
2022/12/02 06:58:41;;;;;;;39.90;22.80;;;4.20;99.90;;;;;;5074322;28;20242;-86
2022/12/02 07:01:30;;;;;;;40.60;21.80;;;4.20;99.90;;;;;;5078227;28;20232;-86
2022/12/02 07:04:17;;;;;;;40.50;20.93;;;4.10;99.90;;;;;;5095331;28;20242;-88
2022/12/02 07:06:46;;;;;;;44.80;21.60;;;4.20;99.90;;;;;;5095974;28;20576;-88
2022/12/02 07:09:17;;;;;;;42.97;21.53;;;4.10;99.90;;;;;;5095459;28;20200;-88
2022/12/02 07:11:53;;;;;;;43.17;22.33;;;4.10;99.90;;;;;;5095285;28;20214;-87
2022/12/02 07:14:39;;;;;;;35.27;18.73;;;4.10;99.90;;;;;;5095418;28;20196;-89
2022/12/02 07:17:19;;;;;;;35.87;20.90;;;4.10;99.90;;;;;;5095222;28;20227;-91
2022/12/02 07:19:49;;;;;;;36.80;20.37;;;4.10;99.90;;;;;;5095066;28;20250;-89
2022/12/02 07:22:18;;;;;;;37.43;20.43;;;4.10;99.90;;;;;;5095434;28;20197;-88
2022/12/02 07:24:52;;;;;;;39.23;20.27;;;4.10;99.90;;;;;;5095698;28;20283;-89
2022/12/02 07:27:23;;;;;;;35.10;19.47;;;4.10;99.90;;;;;;5095335;28;20202;-89
2022/12/02 07:29:51;;;;;;;35.67;20.30;;;4.00;99.90;;;;;;5080922;28;20216;-92
2022/12/02 07:32:18;;;;;;;40.50;20.33;;;4.00;99.90;;;;;;5077196;28;20296;-87
2022/12/02 07:34:45;;;;;;;40.80;20.50;;;4.00;99.90;;;;;;5085510;28;20287;-86
2022/12/02 07:37:12;;;;;;;37.70;20.33;;;4.00;99.90;;;;;;5093866;28;20648;-87
2022/12/02 07:39:39;;;;;;;35.60;18.90;;;4.00;99.90;;;;;;5094783;28;20220;-87
2022/12/02 07:42:06;;;;;;;35.23;19.13;;;4.00;99.90;;;;;;5086463;28;20995;-86
2022/12/02 07:44:33;;;;;;;37.43;19.43;;;4.00;99.90;;;;;;5075745;28;20470;-88
2022/12/02 07:47:02;;;;;;;35.10;18.17;;;4.00;99.90;;;;;;5094488;28;20207;-86
2022/12/02 07:49:29;;;;;;;32.40;18.10;;;4.00;99.90;;;;;;5094620;28;20192;-87
2022/12/02 07:51:56;;;;;;;34.17;17.37;;;3.90;99.90;;;;;;5093988;28;20198;-87
2022/12/02 07:54:23;;;;;;;40.87;19.50;;;4.00;99.90;;;;;;5085850;28;20212;-89
2022/12/02 07:56:50;;;;;;;29.50;17.47;;;4.00;99.90;;;;;;5075209;28;20544;-87
2022/12/02 07:59:17;;;;;;;32.70;18.13;;;4.00;99.90;;;;;;5074221;28;20278;-87
2022/12/02 08:01:44;;;;;;;33.67;18.50;;;4.00;99.90;;;;;;5084215;28;20508;-88
2022/12/02 08:04:12;;;;;;;33.53;18.47;;;4.00;99.90;;;;;;5095483;28;20206;-88
2022/12/02 08:06:39;;;;;;;32.40;17.50;;;4.00;99.90;;;;;;5094729;28;20287;-91
2022/12/02 08:09:07;;;;;;;34.60;17.90;;;4.00;99.90;;;;;;5094756;28;20291;-87
2022/12/02 08:11:34;;;;;;;32.17;18.33;;;4.00;99.90;;;;;;5094389;28;20239;-86
2022/12/02 08:14:00;;;;;;;36.10;19.57;;;3.90;99.90;;;;;;5093377;28;20292;-81
2022/12/02 08:16:27;;;;;;;38.77;19.80;;;3.90;99.90;;;;;;5094074;28;20295;-86
2022/12/02 08:18:54;;;;;;;35.07;19.30;;;3.90;99.90;;;;;;5075365;28;20227;-92
2022/12/02 08:21:22;;;;;;;38.97;18.70;;;3.90;99.90;;;;;;5072782;28;20292;-88
2022/12/02 08:23:49;;;;;;;36.63;19.17;;;3.90;99.90;;;;;;5073761;28;20782;-87
2022/12/02 08:26:16;;;;;;;35.60;18.70;;;3.90;99.90;;;;;;5083263;28;20204;-89
2022/12/02 08:28:43;;;;;;;33.90;18.63;;;3.90;99.90;;;;;;5092336;28;20716;-86
2022/12/02 08:31:10;;;;;;;32.63;18.23;;;3.90;99.90;;;;;;5094301;28;20266;-87
2022/12/02 08:33:37;;;;;;;35.27;18.53;;;3.90;99.90;;;;;;5091564;28;20207;-86
2022/12/02 08:36:04;;;;;;;33.73;18.70;;;3.90;99.90;;;;;;5073857;28;20288;-88
2022/12/02 08:38:33;;;;;;;35.83;19.17;;;3.90;99.90;;;;;;5081099;28;20240;-91
2022/12/02 08:41:00;;;;;;;40.20;20.67;;;3.80;99.90;;;;;;5094638;28;20201;-90
2022/12/02 08:43:27;;;;;;;38.37;20.77;;;3.80;99.90;;;;;;5094361;28;20199;-90
2022/12/02 08:45:54;;;;;;;38.40;19.20;;;3.80;99.90;;;;;;5094247;28;20197;-90
2022/12/02 08:48:21;;;;;;;37.43;19.57;;;3.80;99.90;;;;;;5094365;28;20197;-91
2022/12/02 08:50:47;;;;;;;40.00;20.33;;;3.70;99.90;;;;;;5077356;28;20201;-90
2022/12/02 08:53:14;;;;;;;38.37;20.60;;;3.70;99.90;;;;;;5075058;28;20211;-89
2022/12/02 08:55:43;;;;;;;41.10;21.20;;;3.70;99.90;;;;;;5075755;28;20284;-89
2022/12/02 09:00:53;;;;;;;44.30;22.33;;;3.70;99.90;;;;;;5077136;28;20212;-89
2022/12/02 09:03:20;;;;;;;40.67;20.23;;;3.70;99.90;;;;;;5074028;28;20197;-89
2022/12/02 09:05:46;;;;;;;41.27;21.00;;;3.60;99.90;;;;;;5074024;28;20204;-86
2022/12/02 09:08:14;;;;;;;46.00;21.47;;;3.60;99.90;;;;;;5093176;28;20199;-86
2022/12/02 09:10:44;;;;;;;51.10;23.43;;;3.70;99.90;;;;;;5081387;28;20650;-89
2022/12/02 09:13:11;;;;;;;45.13;22.90;;;3.70;99.90;;;;;;5099371;28;20196;-87
2022/12/02 09:15:38;;;;;;;42.77;23.20;;;3.70;99.90;;;;;;5097434;28;20534;-86
2022/12/02 09:18:05;;;;;;;47.83;23.10;;;3.70;99.90;;;;;;5097469;28;20228;-87
2022/12/02 09:20:32;;;;;;;47.30;23.03;;;3.80;99.90;;;;;;5097721;28;20200;-88
2022/12/02 09:23:00;;;;;;;51.70;23.07;;;3.80;99.90;;;;;;5078753;28;20233;-88
2022/12/02 09:25:27;;;;;;;46.67;22.70;;;3.80;99.90;;;;;;5081675;28;20223;-88
2022/12/02 09:27:56;;;;;;;47.30;22.83;;;3.80;99.90;;;;;;5097656;28;20546;-87
2022/12/02 09:30:23;;;;;;;48.13;22.00;;;3.80;99.90;;;;;;5096573;28;20218;-87
2022/12/02 09:32:49;;;;;;;47.80;23.53;;;3.80;99.90;;;;;;5077309;28;20200;-87
2022/12/02 09:35:16;;;;;;;55.03;24.97;;;3.80;99.90;;;;;;5087045;28;20287;-87
2022/12/02 09:37:43;;;;;;;49.47;24.73;;;3.80;99.90;;;;;;5097150;28;20757;-87
2022/12/02 09:40:11;;;;;;;49.13;24.27;;;3.80;99.90;;;;;;5065610;28;20230;-89
2022/12/02 09:42:38;;;;;;;45.13;22.50;;;3.90;99.90;;;;;;5062772;28;20247;-89
2022/12/02 09:45:07;;;;;;;49.20;22.83;;;3.90;99.90;;;;;;5076838;28;20216;-88
2022/12/02 09:47:35;;;;;;;56.23;25.20;;;3.80;99.90;;;;;;5095642;28;20571;-89
2022/12/02 09:50:02;;;;;;;50.20;23.37;;;3.80;99.90;;;;;;5091097;28;20519;-87
2022/12/02 09:52:29;;;;;;;54.43;25.83;;;3.90;99.90;;;;;;5069876;28;20673;-88
2022/12/02 09:54:58;;;;;;;55.50;22.77;;;3.80;99.90;;;;;;5057767;28;20745;-87
2022/12/02 09:57:28;;;;;;;50.30;23.50;;;3.90;99.90;;;;;;5071239;28;20204;-91
2022/12/02 09:59:56;;;;;;;54.20;23.80;;;3.90;99.90;;;;;;5073407;28;20209;-88
2022/12/02 10:02:31;;;;;;;50.37;24.30;;;3.90;99.90;;;;;;5076459;28;20293;-88
2022/12/02 10:05:04;;;;;;;51.37;23.63;;;3.90;99.90;;;;;;5076027;28;20204;-88
2022/12/02 10:07:31;;;;;;;50.63;24.47;;;3.90;99.90;;;;;;5063367;28;20654;-86
2022/12/02 10:09:58;;;;;;;55.80;26.13;;;4.00;99.90;;;;;;5073731;28;20290;-87
2022/12/02 10:12:25;;;;;;;65.90;26.60;;;4.00;99.90;;;;;;5075311;28;20202;-87
2022/12/02 10:14:52;;;;;;;52.17;24.20;;;4.20;99.90;;;;;;5069862;28;20198;-88
2022/12/02 10:17:21;;;;;;;53.80;25.73;;;4.20;99.90;;;;;;5069524;28;20213;-87
2022/12/02 10:19:50;;;;;;;56.93;25.93;;;4.20;99.90;;;;;;5073683;28;20271;-86
2022/12/02 10:22:19;;;;;;;48.47;23.10;;;4.20;99.90;;;;;;5055074;28;20660;-87
2022/12/02 10:24:47;;;;;;;46.90;23.10;;;4.20;99.90;;;;;;5058866;28;20495;-89
2022/12/02 10:27:25;;;;;;;45.60;21.40;;;4.30;99.90;;;;;;5055526;28;20218;-90
2022/12/02 10:29:52;;;;;;;43.97;21.10;;;4.40;99.90;;;;;;5072574;28;20201;-88
2022/12/02 10:32:21;;;;;;;44.53;21.07;;;4.50;99.90;;;;;;5056387;28;20204;-87
2022/12/02 10:35:04;;;;;;;40.10;19.90;;;4.50;99.90;;;;;;5055037;28;20208;-86
2022/12/02 10:37:33;;;;;;;43.07;20.60;;;4.50;99.90;;;;;;5062701;28;20256;-84
2022/12/02 10:40:14;;;;;;;40.53;20.40;;;4.60;99.90;;;;;;5058539;28;20267;-88
2022/12/02 10:42:42;;;;;;;40.47;19.83;;;4.60;99.90;;;;;;5075893;28;20193;-86
2022/12/02 10:45:16;;;;;;;38.37;18.90;;;4.60;99.90;;;;;;5075888;28;20258;-93
2022/12/02 10:47:43;;;;;;;40.43;19.80;;;4.70;99.90;;;;;;5075708;28;20185;-90
2022/12/02 10:50:19;;;;;;;38.63;19.67;;;4.70;99.90;;;;;;5092260;28;20299;-87
2022/12/02 10:52:48;;;;;;;38.47;18.33;;;4.70;99.90;;;;;;5086790;28;20515;-88
2022/12/02 10:55:16;;;;;;;36.63;18.70;;;4.80;99.90;;;;;;5093373;28;20202;-92
2022/12/02 10:57:45;;;;;;;40.73;19.87;;;4.80;99.90;;;;;;5082999;28;20668;-89
2022/12/02 11:00:19;;;;;;;34.40;18.53;;;4.80;99.90;;;;;;5096097;28;20307;-86
2022/12/02 11:02:48;;;;;;;45.90;20.57;;;4.80;99.90;;;;;;5091562;28;20204;-87
2022/12/02 11:05:20;;;;;;;47.70;20.63;;;4.80;99.90;;;;;;5090911;28;20291;-88
2022/12/02 11:07:55;;;;;;;41.33;20.90;;;4.70;99.90;;;;;;5093533;28;20703;-85
2022/12/02 11:10:24;;;;;;;40.03;19.87;;;4.70;99.90;;;;;;5093630;28;20196;-86
2022/12/02 11:13:23;;;;;;;54.77;24.07;;;4.70;99.90;;;;;;5080596;28;20210;-85
2022/12/02 11:15:52;;;;;;;46.70;23.10;;;4.70;99.90;;;;;;5064135;28;20240;-86
2022/12/02 11:18:48;;;;;;;43.90;22.23;;;4.70;99.90;;;;;;5074446;28;20285;-87
2022/12/02 11:21:36;;;;;;;49.30;22.60;;;4.70;99.90;;;;;;5065916;28;20289;-92
2022/12/02 11:24:36;;;;;;;42.27;21.57;;;4.70;99.90;;;;;;5088463;28;20295;-88
2022/12/02 11:27:09;;;;;;;42.13;21.57;;;4.70;99.90;;;;;;5088599;28;20617;-88
2022/12/02 11:29:37;;;;;;;39.10;20.60;;;4.70;99.90;;;;;;5091004;28;20203;-86
2022/12/02 11:32:17;;;;;;;40.57;21.70;;;4.80;99.90;;;;;;5092992;28;20201;-85
2022/12/02 11:34:47;;;;;;;42.97;21.93;;;4.80;99.90;;;;;;5089459;28;20211;-89
2022/12/02 11:37:44;;;;;;;41.20;21.87;;;4.70;99.90;;;;;;5094408;28;20242;-89
2022/12/02 11:40:56;;;;;;;38.53;21.60;;;4.70;99.90;;;;;;5094427;28;20255;-88
2022/12/02 11:43:53;;;;;;;48.60;23.17;;;4.70;99.90;;;;;;5094848;28;20211;-86
2022/12/02 11:46:21;;;;;;;42.07;22.37;;;4.70;99.90;;;;;;5094306;28;20207;-84
2022/12/02 11:48:50;;;;;;;43.83;22.43;;;4.70;99.90;;;;;;5093934;28;20204;-86
2022/12/02 11:54:27;;;;;;;40.47;21.93;;;4.80;99.90;;;;;;6218649;22;20206;-89
2022/12/02 11:56:54;;;;;;;41.67;21.50;;;4.80;99.90;;;;;;5086319;28;20218;-87
2022/12/02 11:59:24;;;;;;;44.13;20.77;;;4.80;99.90;;;;;;5095019;28;20259;-88
2022/12/02 12:01:51;;;;;;;37.30;19.93;;;4.80;99.90;;;;;;5093679;28;20210;-89
2022/12/02 12:04:24;;;;;;;39.17;20.40;;;4.80;99.90;;;;;;5098137;28;20647;-89
2022/12/02 12:06:57;;;;;;;39.40;18.70;;;4.80;99.90;;;;;;5098617;28;20204;-90
2022/12/02 12:09:25;;;;;;;36.23;18.87;;;4.80;99.90;;;;;;5095820;28;20206;-91
2022/12/02 12:12:14;;;;;;;36.50;18.67;;;4.90;99.90;;;;;;5074431;28;20613;-88
2022/12/02 12:14:55;;;;;;;39.53;18.57;;;4.90;99.90;;;;;;5074342;28;20199;-88
2022/12/02 12:17:44;;;;;;;37.67;17.97;;;4.80;99.90;;;;;;5074514;28;20266;-89
2022/12/02 12:20:43;;;;;;;38.77;17.67;;;4.80;99.90;;;;;;5074158;28;20213;-85
2022/12/02 12:23:30;;;;;;;34.40;17.70;;;4.80;99.90;;;;;;5074021;28;20201;-83
2022/12/02 12:25:58;;;;;;;37.37;17.87;;;4.80;99.90;;;;;;5078246;28;20595;-82
2022/12/02 12:28:26;;;;;;;35.53;17.83;;;4.80;99.90;;;;;;5092465;28;20277;-82
2022/12/02 12:30:53;;;;;;;38.27;17.77;;;4.80;99.90;;;;;;5078180;28;20205;-82
2022/12/02 12:33:21;;;;;;;45.30;19.77;;;4.80;99.90;;;;;;5077800;28;20291;-82
2022/12/02 12:35:48;;;;;;;37.90;19.13;;;4.80;99.90;;;;;;5092622;28;20203;-88
2022/12/02 12:38:15;;;;;;;44.57;19.17;;;4.80;99.90;;;;;;5093145;28;20196;-84
2022/12/02 12:40:41;;;;;;;35.47;17.40;;;4.70;99.90;;;;;;5093775;28;20378;-82
2022/12/02 12:43:10;;;;;;;39.77;19.10;;;4.70;99.90;;;;;;5089869;28;20204;-81
2022/12/02 12:45:36;;;;;;;39.60;18.23;;;4.70;99.90;;;;;;5102617;28;20200;-84
2022/12/02 12:48:03;;;;;;;37.57;19.03;;;4.70;99.90;;;;;;5101132;28;20211;-82
2022/12/02 12:50:30;;;;;;;40.27;19.07;;;4.60;99.90;;;;;;5084645;28;20327;-81
2022/12/02 12:52:57;;;;;;;34.63;16.70;;;4.50;99.90;;;;;;5078123;28;20291;-82
2022/12/02 12:55:24;;;;;;;34.40;16.90;;;4.50;99.90;;;;;;5107992;28;20674;-84
2022/12/02 12:57:51;;;;;;;38.47;17.70;;;4.50;99.90;;;;;;5096616;28;20196;-82